Time;durP1;ratioP1;P1;durP2;ratioP2;P2;SDS_P1;SDS_P2;PMS_P1;PMS_P2;Temp;Humidity;BMP_temperature;BMP_pressure;BME280_temperature;BME280_humidity;BME280_pressure;Samples;Min_cycle;Max_cycle;Signal;HPM_P1;HPM_P2
2023/06/02 00:01:15;;;;;;;11.13;4.63;;;17.70;96.30;;;;;;5085954;28;20292;-81
2023/06/02 00:04:04;;;;;;;11.73;5.00;;;17.40;96.70;;;;;;5080088;28;20318;-80
2023/06/02 00:06:55;;;;;;;13.75;4.95;;;17.40;96.90;;;;;;5079335;28;20810;-79
2023/06/02 00:09:44;;;;;;;11.55;5.05;;;17.40;97.00;;;;;;5067172;28;20726;-80
2023/06/02 00:12:33;;;;;;;13.27;4.93;;;17.30;96.50;;;;;;5057050;28;20334;-81
2023/06/02 00:15:23;;;;;;;14.52;5.25;;;17.40;97.90;;;;;;5053743;28;21012;-83
2023/06/02 00:18:12;;;;;;;12.70;5.30;;;16.80;97.20;;;;;;5066582;28;20247;-83
2023/06/02 00:21:01;;;;;;;13.13;5.47;;;16.90;97.50;;;;;;5082105;28;20224;-83
2023/06/02 00:23:51;;;;;;;9.15;4.75;;;16.60;97.70;;;;;;5068041;28;20216;-83
2023/06/02 00:26:39;;;;;;;15.55;5.95;;;16.60;98.20;;;;;;5083667;28;21060;-82
2023/06/02 00:29:28;;;;;;;15.13;5.10;;;16.60;98.20;;;;;;5064979;28;20223;-83
2023/06/02 00:32:19;;;;;;;11.02;5.25;;;16.80;98.80;;;;;;5065258;28;20236;-83
2023/06/02 00:35:12;;;;;;;11.82;4.90;;;16.80;98.20;;;;;;5082494;28;20227;-79
2023/06/02 00:38:04;;;;;;;8.38;4.85;;;16.90;98.20;;;;;;5083858;28;20223;-78
2023/06/02 00:40:53;;;;;;;8.48;5.10;;;16.90;98.00;;;;;;5046417;28;20258;-75
2023/06/02 00:43:42;;;;;;;12.85;5.03;;;17.20;98.30;;;;;;5066932;28;20771;-80
2023/06/02 00:46:31;;;;;;;15.63;5.13;;;16.90;98.20;;;;;;5084793;28;20219;-80
2023/06/02 00:49:21;;;;;;;11.02;5.22;;;17.20;99.20;;;;;;5056313;28;20570;-80
2023/06/02 00:52:11;;;;;;;19.88;5.82;;;17.00;98.60;;;;;;5075295;28;20736;-80
2023/06/02 00:55:01;;;;;;;12.80;5.22;;;16.90;98.60;;;;;;5086335;28;20732;-79
2023/06/02 00:57:51;;;;;;;11.77;5.55;;;16.90;98.50;;;;;;5050702;28;20227;-78
2023/06/02 01:00:40;;;;;;;9.70;5.32;;;16.90;99.40;;;;;;5061438;28;20232;-76
2023/06/02 01:03:31;;;;;;;10.00;5.05;;;16.80;99.40;;;;;;5046810;28;20312;-78
2023/06/02 01:06:31;;;;;;;10.70;5.03;;;16.80;99.10;;;;;;5045896;28;20311;-75
2023/06/02 01:09:20;;;;;;;15.27;5.45;;;16.60;99.60;;;;;;5080058;28;20229;-77
2023/06/02 01:12:10;;;;;;;13.40;5.50;;;16.80;99.30;;;;;;5063920;28;20322;-76
2023/06/02 01:14:59;;;;;;;14.07;5.53;;;16.40;99.80;;;;;;5067277;28;20331;-77
2023/06/02 01:17:51;;;;;;;14.35;5.55;;;16.50;99.60;;;;;;5068720;28;20238;-77
2023/06/02 01:20:47;;;;;;;10.65;5.40;;;16.60;99.90;;;;;;5076670;28;20426;-78
2023/06/02 01:23:38;;;;;;;20.75;5.43;;;16.60;99.90;;;;;;5059718;28;20354;-78
2023/06/02 01:26:34;;;;;;;14.65;6.05;;;16.60;99.80;;;;;;5057841;28;20222;-78
2023/06/02 01:29:23;;;;;;;14.57;5.85;;;16.50;99.70;;;;;;5078008;28;20234;-79
2023/06/02 01:32:23;;;;;;;8.32;5.10;;;16.40;99.70;;;;;;5083934;28;20637;-78
2023/06/02 01:35:14;;;;;;;15.18;5.90;;;16.00;99.90;;;;;;5075162;28;20223;-76
2023/06/02 01:38:05;;;;;;;12.45;5.78;;;16.20;99.90;;;;;;5063152;28;20224;-74
2023/06/02 01:40:57;;;;;;;12.85;5.40;;;16.00;99.90;;;;;;5050712;28;20294;-77
2023/06/02 01:43:48;;;;;;;14.38;5.35;;;15.70;99.90;;;;;;5046344;28;20220;-78
2023/06/02 01:46:39;;;;;;;14.20;5.07;;;15.70;99.90;;;;;;5048292;28;20712;-77
2023/06/02 01:49:28;;;;;;;13.93;5.60;;;15.80;99.90;;;;;;5059280;28;20258;-79
2023/06/02 01:52:17;;;;;;;12.00;5.35;;;15.90;99.90;;;;;;5056682;28;20290;-79
2023/06/02 01:55:07;;;;;;;11.95;5.80;;;16.00;99.90;;;;;;5062540;28;20246;-81
2023/06/02 01:57:56;;;;;;;12.55;5.88;;;15.80;99.90;;;;;;5076233;28;20239;-80
2023/06/02 02:00:47;;;;;;;12.35;5.45;;;15.70;99.90;;;;;;5063242;28;20227;-79
2023/06/02 02:03:37;;;;;;;11.15;5.65;;;15.90;99.90;;;;;;5084338;28;20859;-81
2023/06/02 02:06:29;;;;;;;13.68;5.68;;;15.90;99.90;;;;;;5084158;28;20230;-80
2023/06/02 02:09:18;;;;;;;18.50;6.05;;;16.10;99.90;;;;;;5069095;28;20289;-80
2023/06/02 02:12:08;;;;;;;11.10;5.43;;;15.90;99.90;;;;;;5069314;28;20276;-79
2023/06/02 02:15:00;;;;;;;13.10;5.63;;;16.00;99.90;;;;;;5068871;28;20396;-80
2023/06/02 02:17:50;;;;;;;13.93;6.00;;;16.20;99.90;;;;;;5065660;28;20772;-79
2023/06/02 02:20:40;;;;;;;13.02;6.30;;;16.10;99.90;;;;;;5090434;28;20224;-79
2023/06/02 02:23:30;;;;;;;10.85;5.13;;;16.10;99.90;;;;;;5074168;28;20241;-81
2023/06/02 02:26:19;;;;;;;10.93;5.70;;;16.00;99.90;;;;;;5064662;28;20242;-80
2023/06/02 02:29:08;;;;;;;9.90;5.35;;;16.00;99.90;;;;;;5059022;28;20322;-80
2023/06/02 02:31:56;;;;;;;16.13;5.90;;;16.10;99.90;;;;;;5065527;28;20227;-81
2023/06/02 02:34:48;;;;;;;15.00;6.00;;;16.10;99.90;;;;;;5059537;28;20310;-81
2023/06/02 02:37:38;;;;;;;17.55;6.13;;;16.00;99.90;;;;;;5066429;28;20552;-82
2023/06/02 02:40:37;;;;;;;14.32;5.45;;;16.20;99.90;;;;;;5059010;28;20696;-81
2023/06/02 02:43:26;;;;;;;13.85;6.13;;;16.30;99.90;;;;;;5068850;28;20220;-78
2023/06/02 02:46:14;;;;;;;11.68;5.57;;;16.20;99.90;;;;;;5049699;28;20235;-81
2023/06/02 02:49:04;;;;;;;11.80;5.68;;;16.10;99.90;;;;;;5064034;28;20216;-82
2023/06/02 02:51:54;;;;;;;11.25;5.45;;;16.00;99.90;;;;;;5079514;28;20216;-83
2023/06/02 02:54:43;;;;;;;11.88;6.25;;;16.20;99.90;;;;;;5057448;28;20216;-84
2023/06/02 02:57:34;;;;;;;14.30;5.90;;;16.20;99.90;;;;;;5046221;28;20735;-86
2023/06/02 03:00:23;;;;;;;12.75;6.00;;;16.10;99.90;;;;;;5052533;28;20220;-85
2023/06/02 03:03:12;;;;;;;11.43;5.78;;;15.90;99.90;;;;;;5059176;28;20221;-82
2023/06/02 03:06:05;;;;;;;13.50;6.38;;;16.00;99.90;;;;;;5059912;28;20691;-81
2023/06/02 03:08:56;;;;;;;12.75;5.40;;;16.00;99.90;;;;;;5069502;28;20224;-79
2023/06/02 03:11:45;;;;;;;15.23;6.38;;;16.10;99.90;;;;;;5080038;28;20228;-80
2023/06/02 03:14:36;;;;;;;16.65;5.80;;;16.30;99.90;;;;;;5044688;28;20229;-80
2023/06/02 03:17:27;;;;;;;12.38;5.95;;;16.30;99.90;;;;;;5044451;28;20577;-78
2023/06/02 03:20:17;;;;;;;13.48;6.20;;;16.50;99.90;;;;;;5062535;28;20300;-79
2023/06/02 03:23:11;;;;;;;14.65;6.38;;;16.40;99.90;;;;;;5068884;28;20306;-77
2023/06/02 03:26:02;;;;;;;13.45;6.07;;;16.40;99.90;;;;;;5059445;28;20228;-78
2023/06/02 03:28:52;;;;;;;15.38;6.72;;;16.60;99.90;;;;;;5062699;28;20228;-78
2023/06/02 03:31:41;;;;;;;11.88;6.35;;;16.50;99.90;;;;;;5049437;28;20247;-78
2023/06/02 03:34:32;;;;;;;14.68;6.55;;;16.40;99.90;;;;;;5058982;28;20220;-79
2023/06/02 03:37:21;;;;;;;11.65;6.63;;;16.40;99.90;;;;;;5073501;28;20586;-79
2023/06/02 03:40:12;;;;;;;11.55;6.43;;;16.60;99.90;;;;;;5070583;28;20224;-80
2023/06/02 03:43:02;;;;;;;15.30;6.88;;;16.60;99.90;;;;;;5063871;28;20256;-79
2023/06/02 03:45:52;;;;;;;14.88;6.85;;;16.60;99.90;;;;;;5075147;28;20217;-79
2023/06/02 03:48:41;;;;;;;14.90;6.70;;;16.70;99.90;;;;;;5072644;28;20821;-82
2023/06/02 03:51:31;;;;;;;17.30;7.03;;;16.70;99.90;;;;;;5063952;28;20228;-83
2023/06/02 03:54:20;;;;;;;14.20;6.90;;;16.60;99.90;;;;;;5044910;28;20223;-81
2023/06/02 03:57:10;;;;;;;15.02;6.72;;;16.60;99.90;;;;;;5062347;28;20227;-82
2023/06/02 04:00:01;;;;;;;15.60;6.65;;;16.70;99.90;;;;;;5058315;28;20323;-82
2023/06/02 04:02:50;;;;;;;13.93;7.57;;;16.70;99.90;;;;;;5056582;28;20235;-76
2023/06/02 04:05:42;;;;;;;19.02;7.20;;;16.80;99.90;;;;;;5069022;28;20227;-76
2023/06/02 04:08:36;;;;;;;11.95;6.15;;;16.80;99.90;;;;;;5061165;28;20248;-75
2023/06/02 04:11:26;;;;;;;17.20;7.30;;;16.70;99.90;;;;;;5060913;28;20231;-75
2023/06/02 04:14:15;;;;;;;16.70;7.53;;;16.90;99.90;;;;;;5065220;28;20223;-74
2023/06/02 04:17:09;;;;;;;15.43;7.10;;;16.80;99.90;;;;;;5046635;28;20234;-76
2023/06/02 04:19:58;;;;;;;15.30;6.95;;;16.80;99.90;;;;;;5066217;28;20224;-79
2023/06/02 04:22:47;;;;;;;19.65;7.10;;;16.70;99.90;;;;;;5050120;28;20212;-78
2023/06/02 04:25:37;;;;;;;15.18;7.72;;;16.90;99.90;;;;;;5052944;28;20224;-77
2023/06/02 04:28:26;;;;;;;15.88;7.47;;;16.90;99.90;;;;;;5067695;28;20344;-82
2023/06/02 04:31:26;;;;;;;20.60;7.82;;;17.00;99.90;;;;;;5058660;28;20822;-79
2023/06/02 04:34:19;;;;;;;17.40;7.50;;;17.00;99.90;;;;;;5056249;28;20309;-76
2023/06/02 04:37:10;;;;;;;15.60;7.95;;;16.80;99.90;;;;;;5078734;28;20234;-76
2023/06/02 04:40:04;;;;;;;15.55;7.20;;;16.80;99.90;;;;;;5064187;28;20358;-75
2023/06/02 04:42:55;;;;;;;14.25;7.47;;;16.90;99.90;;;;;;5070163;28;20243;-76
2023/06/02 04:45:45;;;;;;;17.08;7.53;;;17.00;99.90;;;;;;5045232;28;20235;-76
2023/06/02 04:48:39;;;;;;;12.18;7.38;;;17.00;99.90;;;;;;5051606;28;20224;-78
2023/06/02 04:51:32;;;;;;;16.25;7.85;;;16.90;99.90;;;;;;5045587;28;20229;-77
2023/06/02 04:54:20;;;;;;;14.75;7.63;;;17.10;99.90;;;;;;5068356;28;20697;-76
2023/06/02 04:57:09;;;;;;;17.75;7.72;;;17.10;99.90;;;;;;5064985;28;20230;-76
2023/06/02 04:59:58;;;;;;;15.25;7.45;;;16.90;99.90;;;;;;5084333;28;21008;-79
2023/06/02 05:02:47;;;;;;;16.42;7.68;;;17.10;99.90;;;;;;5068739;28;20230;-80
2023/06/02 05:05:37;;;;;;;15.18;7.30;;;17.10;99.90;;;;;;5066855;28;20576;-83
2023/06/02 05:08:27;;;;;;;13.77;7.53;;;17.20;99.90;;;;;;5060374;28;20305;-82
2023/06/02 05:11:16;;;;;;;15.40;7.53;;;17.30;99.90;;;;;;5044688;28;20221;-79
2023/06/02 05:14:05;;;;;;;17.00;7.45;;;17.10;99.90;;;;;;5049721;28;20215;-81
2023/06/02 05:16:54;;;;;;;14.75;7.13;;;17.20;99.90;;;;;;5070604;28;20220;-82
2023/06/02 05:19:43;;;;;;;15.95;7.90;;;17.10;99.90;;;;;;5075223;28;20250;-83
2023/06/02 05:22:38;;;;;;;14.50;7.22;;;17.10;99.90;;;;;;5065036;28;25599;-84
2023/06/02 05:25:29;;;;;;;21.45;8.00;;;17.10;99.90;;;;;;5060596;28;20308;-82
2023/06/02 05:28:19;;;;;;;14.13;6.72;;;17.30;99.90;;;;;;5059139;28;20324;-82
2023/06/02 05:31:10;;;;;;;11.73;7.47;;;17.20;99.90;;;;;;5068010;28;20212;-82
2023/06/02 05:34:04;;;;;;;13.45;7.68;;;17.20;99.90;;;;;;5068729;28;20219;-86
2023/06/02 05:36:53;;;;;;;16.00;7.75;;;17.10;99.90;;;;;;5085525;28;20230;-85
2023/06/02 05:39:43;;;;;;;12.98;7.05;;;17.20;99.90;;;;;;5063615;28;20254;-73
2023/06/02 05:42:33;;;;;;;13.70;6.95;;;17.00;99.90;;;;;;5075091;28;20742;-74
2023/06/02 05:45:22;;;;;;;14.95;7.15;;;16.90;99.90;;;;;;5059963;28;20231;-81
2023/06/02 05:48:12;;;;;;;17.83;7.80;;;17.10;99.90;;;;;;5065794;28;20226;-79
2023/06/02 05:51:02;;;;;;;14.50;7.32;;;17.20;99.90;;;;;;5076637;28;20224;-78
2023/06/02 05:53:51;;;;;;;14.38;7.82;;;17.10;99.90;;;;;;5062163;28;20246;-78
2023/06/02 05:56:40;;;;;;;11.98;7.07;;;17.10;99.90;;;;;;5059952;28;20234;-77
2023/06/02 05:59:31;;;;;;;15.52;8.13;;;17.20;99.90;;;;;;5064019;28;20740;-78
2023/06/02 06:02:20;;;;;;;15.98;7.85;;;17.10;99.90;;;;;;5055157;28;20231;-75
2023/06/02 06:05:10;;;;;;;13.07;7.80;;;17.20;99.90;;;;;;5057798;28;20703;-77
2023/06/02 06:08:00;;;;;;;14.10;7.65;;;17.20;99.90;;;;;;5066503;28;20230;-81
2023/06/02 06:10:50;;;;;;;12.68;7.72;;;17.30;99.90;;;;;;5052570;28;20242;-81
2023/06/02 06:13:43;;;;;;;17.13;7.93;;;17.30;99.90;;;;;;5066425;28;20721;-82
2023/06/02 06:16:33;;;;;;;16.35;7.70;;;17.50;99.90;;;;;;5072654;28;20227;-74
2023/06/02 06:19:22;;;;;;;12.82;7.20;;;17.30;99.90;;;;;;5059695;28;20268;-74
2023/06/02 06:22:11;;;;;;;13.52;7.68;;;17.30;99.90;;;;;;5074388;28;20234;-83
2023/06/02 06:25:00;;;;;;;14.38;7.57;;;17.30;99.90;;;;;;5063350;28;20686;-73
2023/06/02 06:27:49;;;;;;;16.85;7.10;;;17.30;99.90;;;;;;5063477;28;20220;-71
2023/06/02 06:30:40;;;;;;;16.13;7.10;;;17.20;99.90;;;;;;5076350;28;20302;-74
2023/06/02 06:33:31;;;;;;;13.25;7.13;;;17.20;99.90;;;;;;5074766;28;20225;-74
2023/06/02 06:36:19;;;;;;;13.13;7.00;;;17.10;99.90;;;;;;5045358;28;20255;-75
2023/06/02 06:39:08;;;;;;;15.52;6.90;;;17.00;99.90;;;;;;5065703;28;20224;-77
2023/06/02 06:41:57;;;;;;;12.73;7.07;;;16.80;99.90;;;;;;5080402;28;20551;-76
2023/06/02 06:44:58;;;;;;;13.70;7.60;;;16.60;99.90;;;;;;5063311;28;20222;-76
2023/06/02 06:47:49;;;;;;;16.63;7.05;;;16.80;99.90;;;;;;5052316;28;20852;-74
2023/06/02 06:50:40;;;;;;;11.55;6.70;;;16.80;99.90;;;;;;5042870;28;20235;-75
2023/06/02 06:53:28;;;;;;;13.25;7.10;;;16.70;99.90;;;;;;5064202;28;20231;-76
2023/06/02 06:56:21;;;;;;;13.02;6.38;;;16.80;99.90;;;;;;5052399;28;20220;-75
2023/06/02 06:59:11;;;;;;;13.73;6.78;;;16.80;99.90;;;;;;5049536;28;20587;-75
2023/06/02 07:01:59;;;;;;;18.63;7.75;;;16.90;99.90;;;;;;5043325;28;20280;-74
2023/06/02 07:04:48;;;;;;;15.48;7.65;;;16.90;99.90;;;;;;5059130;28;20220;-75
2023/06/02 07:07:38;;;;;;;12.88;6.65;;;16.80;99.90;;;;;;5070520;28;20230;-75
2023/06/02 07:10:27;;;;;;;14.13;7.78;;;16.60;99.90;;;;;;5063246;28;20580;-76
2023/06/02 07:13:18;;;;;;;19.10;6.38;;;16.50;99.90;;;;;;5083068;28;20343;-76
2023/06/02 07:16:08;;;;;;;20.60;7.13;;;16.50;99.90;;;;;;5067349;28;20218;-75
2023/06/02 07:18:56;;;;;;;26.95;7.00;;;16.60;99.90;;;;;;5052877;28;20522;-76
2023/06/02 07:21:45;;;;;;;27.73;6.72;;;16.60;99.90;;;;;;5062806;28;20619;-76
2023/06/02 07:24:35;;;;;;;27.65;6.85;;;16.80;99.90;;;;;;5060265;28;20591;-76
2023/06/02 07:27:24;;;;;;;13.48;6.45;;;16.90;99.90;;;;;;5053513;28;20303;-75
2023/06/02 07:30:13;;;;;;;9.95;5.93;;;16.90;99.90;;;;;;5052935;28;20243;-74
2023/06/02 07:33:02;;;;;;;12.60;6.18;;;16.90;99.90;;;;;;5056993;28;20231;-74
2023/06/02 07:35:53;;;;;;;13.57;6.00;;;16.90;99.90;;;;;;5054643;28;20228;-73
2023/06/02 07:38:43;;;;;;;10.63;5.88;;;16.90;99.90;;;;;;5055317;28;20278;-74
2023/06/02 07:41:34;;;;;;;10.00;5.50;;;17.00;99.90;;;;;;5057807;28;20277;-74
2023/06/02 07:44:22;;;;;;;9.98;5.22;;;17.10;99.90;;;;;;5063180;28;20304;-73
2023/06/02 07:47:11;;;;;;;8.27;5.25;;;17.20;99.90;;;;;;5060646;28;20224;-74
2023/06/02 07:50:01;;;;;;;9.15;5.20;;;17.20;99.90;;;;;;5055525;28;20242;-74
2023/06/02 07:52:49;;;;;;;11.65;5.32;;;17.40;99.90;;;;;;5055525;28;20220;-74
2023/06/02 07:55:38;;;;;;;9.57;5.45;;;17.70;99.90;;;;;;5058782;28;20954;-74
2023/06/02 07:58:29;;;;;;;8.70;5.10;;;18.10;99.90;;;;;;5058210;28;20671;-75
2023/06/02 08:01:18;;;;;;;11.88;4.90;;;18.30;99.90;;;;;;5052744;28;20656;-74
2023/06/02 08:04:07;;;;;;;10.52;5.38;;;18.70;99.90;;;;;;5061853;28;20687;-75
2023/06/02 08:06:56;;;;;;;9.50;5.20;;;18.90;99.90;;;;;;5060153;28;20932;-74
2023/06/02 08:09:45;;;;;;;15.27;5.18;;;18.90;99.90;;;;;;5056558;28;20223;-74
2023/06/02 08:12:34;;;;;;;9.88;4.95;;;18.90;99.30;;;;;;5055341;28;20217;-75
2023/06/02 08:15:24;;;;;;;9.05;5.15;;;19.00;99.90;;;;;;5060910;28;20254;-74
2023/06/02 08:18:14;;;;;;;9.95;5.57;;;19.10;99.90;;;;;;5071888;28;20307;-74
2023/06/02 08:21:05;;;;;;;9.27;4.95;;;19.10;99.00;;;;;;5054181;28;20307;-75
2023/06/02 08:23:54;;;;;;;13.57;7.03;;;18.90;99.20;;;;;;5056421;28;20929;-75
2023/06/02 08:26:44;;;;;;;9.68;5.03;;;18.60;99.50;;;;;;5054181;28;20903;-74
2023/06/02 08:29:33;;;;;;;10.93;4.90;;;18.30;98.90;;;;;;5061016;28;20794;-73
2023/06/02 08:32:27;;;;;;;11.57;4.57;;;18.20;99.60;;;;;;5061246;28;20307;-73
2023/06/02 08:35:16;;;;;;;9.63;4.70;;;18.20;99.90;;;;;;5060912;28;20691;-75
2023/06/02 08:38:07;;;;;;;18.55;4.68;;;18.10;99.90;;;;;;5057921;28;21016;-73
2023/06/02 08:40:56;;;;;;;9.68;4.18;;;17.90;99.90;;;;;;5058556;28;20220;-73
2023/06/02 08:43:45;;;;;;;10.70;4.38;;;17.90;99.90;;;;;;5054537;28;20813;-73
2023/06/02 08:46:34;;;;;;;13.55;4.45;;;17.70;99.90;;;;;;5060087;28;20579;-72
2023/06/02 08:49:28;;;;;;;13.38;4.40;;;17.80;99.90;;;;;;5054339;28;20228;-75
2023/06/02 08:52:21;;;;;;;14.20;4.28;;;18.00;99.90;;;;;;5056550;28;20487;-73
2023/06/02 08:55:12;;;;;;;9.02;4.10;;;18.10;99.90;;;;;;5050930;28;20958;-74
2023/06/02 08:58:00;;;;;;;16.15;4.45;;;18.30;99.70;;;;;;5059653;28;20358;-76
2023/06/02 09:00:50;;;;;;;11.88;4.05;;;19.60;98.90;;;;;;5059447;28;20232;-74
2023/06/02 09:03:38;;;;;;;9.57;4.35;;;20.90;96.50;;;;;;5056819;28;20259;-75
2023/06/02 09:06:36;;;;;;;11.30;4.15;;;21.50;94.10;;;;;;5055682;28;26716;-75
2023/06/02 09:09:39;;;;;;;12.30;4.10;;;20.80;95.10;;;;;;5057825;28;20262;-74
2023/06/02 09:12:28;;;;;;;11.85;4.00;;;20.60;95.70;;;;;;5061855;28;20318;-73
2023/06/02 09:15:18;;;;;;;9.43;4.07;;;20.80;95.40;;;;;;5054277;28;20330;-74
2023/06/02 09:18:11;;;;;;;11.05;3.83;;;20.40;94.80;;;;;;5054060;28;20230;-75
2023/06/02 09:21:01;;;;;;;9.27;4.25;;;20.20;95.70;;;;;;5052441;28;20223;-73
2023/06/02 09:23:51;;;;;;;10.77;4.10;;;19.80;96.40;;;;;;5055438;28;20230;-71
2023/06/02 09:27:00;;;;;;;18.50;4.20;;;19.40;96.00;;;;;;5054431;28;20246;-72
2023/06/02 09:29:52;;;;;;;10.10;4.07;;;18.90;97.50;;;;;;5060102;28;20223;-72
2023/06/02 09:32:52;;;;;;;9.63;4.75;;;18.80;98.70;;;;;;5054907;28;20224;-75
2023/06/02 09:35:42;;;;;;;9.52;4.50;;;18.60;98.30;;;;;;5049829;28;20240;-77
2023/06/02 09:38:43;;;;;;;10.45;4.65;;;18.20;98.40;;;;;;5041860;28;20220;-78
2023/06/02 09:41:33;;;;;;;17.52;4.88;;;17.60;99.50;;;;;;5051050;28;20225;-77
2023/06/02 09:44:23;;;;;;;17.42;4.88;;;16.90;99.90;;;;;;5056812;28;20485;-74
2023/06/02 09:47:22;;;;;;;12.93;4.50;;;16.50;99.90;;;;;;5057011;28;20274;-74
2023/06/02 09:50:32;;;;;;;10.63;3.83;;;16.50;99.90;;;;;;5056804;28;20216;-74
2023/06/02 09:53:22;;;;;;;9.65;4.10;;;16.20;99.90;;;;;;5052874;28;20219;-73
2023/06/02 09:56:11;;;;;;;8.88;4.75;;;16.30;99.90;;;;;;5050752;28;20229;-77
2023/06/02 09:59:03;;;;;;;8.25;4.60;;;16.20;99.90;;;;;;5056283;28;20252;-75
2023/06/02 10:01:52;;;;;;;10.88;4.45;;;15.60;99.90;;;;;;5046804;28;20372;-75
2023/06/02 10:04:41;;;;;;;11.05;3.97;;;15.60;99.90;;;;;;5057637;28;20668;-74
2023/06/02 10:07:48;;;;;;;11.10;4.53;;;15.60;99.90;;;;;;5056171;28;20253;-73
2023/06/02 10:10:49;;;;;;;10.63;3.90;;;16.00;99.90;;;;;;5073012;28;20219;-74
2023/06/02 10:14:06;;;;;;;10.40;4.40;;;16.10;99.90;;;;;;5053168;28;20365;-73
2023/06/02 10:17:15;;;;;;;12.48;4.18;;;16.10;99.90;;;;;;5041345;28;20230;-76
2023/06/02 10:20:21;;;;;;;10.57;4.30;;;16.30;99.90;;;;;;5062579;28;20412;-77
2023/06/02 10:23:29;;;;;;;11.98;4.30;;;16.50;99.90;;;;;;5052091;28;20248;-77
2023/06/02 10:26:43;;;;;;;12.52;4.20;;;16.40;99.90;;;;;;5043107;28;20254;-76
2023/06/02 10:29:33;;;;;;;9.35;4.65;;;16.40;99.90;;;;;;5053757;28;20227;-74
2023/06/02 10:32:26;;;;;;;13.07;4.20;;;16.70;99.90;;;;;;5071976;28;20620;-75
2023/06/02 10:35:19;;;;;;;8.15;4.32;;;16.90;99.90;;;;;;5060767;28;20246;-74
2023/06/02 10:38:29;;;;;;;12.25;4.13;;;16.80;99.90;;;;;;5059826;28;20226;-73
2023/06/02 10:41:22;;;;;;;9.50;3.80;;;16.50;99.90;;;;;;5048458;28;20216;-73
2023/06/02 10:44:25;;;;;;;10.55;4.10;;;16.70;99.90;;;;;;5056149;28;20642;-74
2023/06/02 10:47:39;;;;;;;11.05;3.88;;;16.80;99.90;;;;;;5062935;28;20758;-74
2023/06/02 10:50:53;;;;;;;9.60;3.53;;;16.60;99.90;;;;;;5057209;28;20220;-73
2023/06/02 10:54:13;;;;;;;10.88;3.70;;;16.50;99.70;;;;;;5052212;28;20735;-73
2023/06/02 10:57:02;;;;;;;5.30;3.25;;;16.60;99.90;;;;;;5062676;28;20295;-73
2023/06/02 10:59:51;;;;;;;6.22;2.78;;;16.10;99.50;;;;;;5061028;28;20228;-73
2023/06/02 11:02:47;;;;;;;9.02;3.00;;;15.90;99.50;;;;;;5064562;28;20378;-72
2023/06/02 11:05:36;;;;;;;5.82;3.05;;;16.20;99.70;;;;;;5061953;28;20220;-72
2023/06/02 11:08:28;;;;;;;6.40;2.70;;;16.70;99.00;;;;;;5063629;28;20274;-72
2023/06/02 11:11:53;;;;;;;5.75;2.78;;;16.90;98.60;;;;;;5061066;28;20255;-73
2023/06/02 11:15:17;;;;;;;6.38;2.55;;;16.70;98.50;;;;;;5066349;28;20224;-73
2023/06/02 11:18:41;;;;;;;11.60;2.90;;;16.50;97.70;;;;;;5075439;28;20228;-73
2023/06/02 11:21:29;;;;;;;7.47;2.85;;;16.30;98.00;;;;;;5061093;28;20674;-74
2023/06/02 11:24:22;;;;;;;7.10;2.85;;;16.10;98.10;;;;;;5050303;28;20228;-72
2023/06/02 11:27:11;;;;;;;4.90;2.50;;;16.00;98.00;;;;;;5053829;28;20227;-71
2023/06/02 11:30:09;;;;;;;7.18;2.80;;;15.80;98.70;;;;;;5059669;28;20244;-72
2023/06/02 11:33:01;;;;;;;7.50;3.08;;;16.10;98.70;;;;;;5062396;28;20220;-70
2023/06/02 11:35:59;;;;;;;7.10;2.58;;;16.20;98.10;;;;;;5060115;28;20326;-73
2023/06/02 11:38:47;;;;;;;5.53;3.05;;;15.90;97.90;;;;;;5052714;28;20263;-74
2023/06/02 11:41:37;;;;;;;4.55;3.05;;;16.30;97.70;;;;;;5058702;28;20228;-72
2023/06/02 11:44:26;;;;;;;7.60;2.88;;;16.20;97.10;;;;;;5058029;28;20224;-73
2023/06/02 11:47:18;;;;;;;9.13;3.00;;;16.50;97.50;;;;;;5055425;28;20246;-76
2023/06/02 11:50:15;;;;;;;7.82;2.33;;;16.90;96.80;;;;;;5052660;28;20229;-73
2023/06/02 11:53:13;;;;;;;6.10;2.97;;;16.70;96.50;;;;;;5046030;28;20224;-73
2023/06/02 11:56:02;;;;;;;4.80;2.30;;;16.30;96.60;;;;;;5074834;28;20228;-73
2023/06/02 11:58:53;;;;;;;8.68;2.45;;;16.40;96.20;;;;;;5057003;28;20224;-72
2023/06/02 12:01:42;;;;;;;7.95;2.80;;;15.80;96.20;;;;;;5060103;28;20236;-72
2023/06/02 12:04:31;;;;;;;7.75;2.28;;;15.50;96.80;;;;;;5048236;28;20235;-74
2023/06/02 12:07:28;;;;;;;6.15;2.10;;;15.80;97.10;;;;;;5060460;28;20240;-71
2023/06/02 12:10:18;;;;;;;5.82;2.60;;;15.80;97.40;;;;;;5057746;28;20236;-74
2023/06/02 12:13:25;;;;;;;6.13;2.20;;;16.00;97.00;;;;;;5055859;28;20224;-74
2023/06/02 12:16:21;;;;;;;4.03;2.25;;;16.20;96.50;;;;;;5057554;28;20219;-73
2023/06/02 12:19:14;;;;;;;6.15;2.40;;;15.60;96.50;;;;;;5051398;28;20235;-72
2023/06/02 12:22:10;;;;;;;8.70;2.40;;;15.70;96.30;;;;;;5060519;28;20932;-73
2023/06/02 12:25:11;;;;;;;5.28;2.40;;;15.10;96.60;;;;;;5054278;28;20232;-73
2023/06/02 12:28:13;;;;;;;5.47;2.20;;;15.10;97.30;;;;;;5049107;28;20684;-73
2023/06/02 12:31:02;;;;;;;6.45;1.95;;;15.40;96.90;;;;;;5052626;28;20215;-74
2023/06/02 12:33:52;;;;;;;4.70;1.90;;;15.40;96.90;;;;;;5060794;28;20270;-74
2023/06/02 12:36:41;;;;;;;6.55;2.38;;;15.40;96.20;;;;;;5058266;28;20227;-75
2023/06/02 12:39:31;;;;;;;6.93;2.53;;;14.90;96.60;;;;;;5061480;28;20228;-74
2023/06/02 12:42:20;;;;;;;6.25;2.40;;;15.00;96.60;;;;;;5059682;28;20345;-74
2023/06/02 12:45:11;;;;;;;6.97;2.30;;;15.00;96.90;;;;;;5057704;28;20270;-73
2023/06/02 12:48:01;;;;;;;6.32;2.50;;;15.00;97.40;;;;;;5059707;28;20212;-74
2023/06/02 12:50:51;;;;;;;6.97;2.63;;;15.20;97.30;;;;;;5054222;28;20235;-74
2023/06/02 12:53:42;;;;;;;4.90;2.38;;;15.30;96.80;;;;;;5061310;28;20228;-75
2023/06/02 12:56:31;;;;;;;5.03;3.05;;;15.10;96.90;;;;;;5047106;28;20710;-73
2023/06/02 12:59:23;;;;;;;5.00;2.22;;;15.10;97.00;;;;;;5052144;28;20221;-75
2023/06/02 13:02:14;;;;;;;10.35;2.30;;;15.10;96.30;;;;;;5058154;28;20286;-75
2023/06/02 13:05:04;;;;;;;6.43;2.50;;;15.20;97.00;;;;;;5057043;28;20216;-74
2023/06/02 13:07:53;;;;;;;4.93;2.60;;;15.20;96.20;;;;;;5063394;28;20301;-75
2023/06/02 13:10:41;;;;;;;8.63;2.63;;;15.00;96.70;;;;;;5057001;28;20293;-74
2023/06/02 13:13:30;;;;;;;6.75;2.83;;;15.30;97.30;;;;;;5050953;28;20248;-74
2023/06/02 13:16:19;;;;;;;4.57;2.20;;;15.70;96.20;;;;;;5055015;28;20706;-74
2023/06/02 13:19:09;;;;;;;6.80;1.80;;;15.60;95.30;;;;;;5037392;28;20221;-74
2023/06/02 13:21:59;;;;;;;6.57;2.30;;;15.40;95.10;;;;;;5057023;28;20227;-73
2023/06/02 13:24:48;;;;;;;6.32;2.28;;;15.60;95.60;;;;;;5059195;28;20326;-73
2023/06/02 13:27:37;;;;;;;8.73;2.67;;;15.90;94.90;;;;;;5073897;28;20220;-71
2023/06/02 13:30:32;;;;;;;5.80;2.00;;;15.70;94.50;;;;;;5057679;28;20804;-73
2023/06/02 13:33:21;;;;;;;3.78;2.00;;;15.50;93.40;;;;;;5058862;28;20213;-72
2023/06/02 13:36:18;;;;;;;4.88;2.13;;;15.40;93.30;;;;;;5058687;28;20216;-72
2023/06/02 13:39:07;;;;;;;4.15;1.50;;;15.70;93.90;;;;;;5053210;28;20216;-73
2023/06/02 13:41:56;;;;;;;2.47;1.75;;;15.70;92.50;;;;;;5056783;28;20231;-72
2023/06/02 13:44:44;;;;;;;4.65;1.88;;;16.10;92.00;;;;;;5080495;28;20231;-80
2023/06/02 13:47:33;;;;;;;7.20;1.85;;;16.30;91.10;;;;;;5059341;28;20768;-75
2023/06/02 13:50:22;;;;;;;4.95;2.20;;;16.00;90.80;;;;;;5075549;28;20238;-75
2023/06/02 13:53:13;;;;;;;5.93;1.80;;;15.70;91.20;;;;;;5066995;28;20265;-77
2023/06/02 13:56:02;;;;;;;5.32;2.20;;;15.80;91.60;;;;;;5070575;28;20295;-75
2023/06/02 13:58:52;;;;;;;4.90;2.00;;;16.00;91.70;;;;;;5074890;28;20372;-76
2023/06/02 14:01:41;;;;;;;2.53;1.67;;;15.70;91.70;;;;;;5061554;28;20298;-75
2023/06/02 14:04:30;;;;;;;2.83;1.77;;;15.70;91.30;;;;;;5063313;28;20224;-74
2023/06/02 14:07:20;;;;;;;6.65;1.90;;;15.60;91.50;;;;;;5057378;28;20303;-77
2023/06/02 14:10:11;;;;;;;4.30;2.28;;;15.50;91.60;;;;;;5059658;28;20216;-83
2023/06/02 14:13:00;;;;;;;5.05;2.00;;;15.40;91.70;;;;;;5056472;28;20319;-81
2023/06/02 14:15:49;;;;;;;5.25;2.33;;;15.50;92.00;;;;;;5073698;28;20239;-83
2023/06/02 14:18:38;;;;;;;5.97;2.17;;;15.60;91.90;;;;;;5048855;28;20228;-81
2023/06/02 14:21:28;;;;;;;5.25;2.50;;;15.40;91.50;;;;;;5048316;28;20224;-84
2023/06/02 14:24:17;;;;;;;3.70;1.88;;;15.50;91.40;;;;;;5061755;28;20224;-84
2023/06/02 14:27:08;;;;;;;6.07;2.33;;;15.70;91.80;;;;;;5043185;28;20220;-81
2023/06/02 14:29:57;;;;;;;9.68;2.20;;;15.80;91.90;;;;;;5050430;28;20235;-81
2023/06/02 14:32:46;;;;;;;5.20;1.83;;;15.70;91.10;;;;;;5080191;28;20709;-81
2023/06/02 14:35:35;;;;;;;6.20;1.65;;;15.80;90.90;;;;;;5064710;28;20270;-80
2023/06/02 14:38:24;;;;;;;6.15;2.10;;;15.80;90.70;;;;;;5051644;28;20221;-81
2023/06/02 14:41:13;;;;;;;3.42;2.00;;;16.00;90.50;;;;;;5054700;28;20733;-81
2023/06/02 14:44:06;;;;;;;7.47;2.00;;;16.10;90.40;;;;;;5057309;28;20216;-81
2023/06/02 14:46:55;;;;;;;3.50;1.50;;;16.20;90.90;;;;;;5051123;28;20217;-79